createdAt,value
2017-11-21T00:02:17.611Z,10.12
2017-11-21T00:04:45.679Z,10.10
2017-11-21T00:07:13.764Z,10.11
2017-11-21T00:09:41.606Z,10.08
2017-11-21T00:12:09.222Z,10.09
2017-11-21T00:14:36.756Z,10.04
2017-11-21T00:17:04.347Z,10.07
2017-11-21T00:19:32.286Z,10.06
2017-11-21T00:21:59.885Z,10.03
2017-11-21T00:24:27.451Z,10.00
2017-11-21T00:26:55.120Z,9.89
2017-11-21T00:29:22.676Z,9.83
2017-11-21T00:31:50.205Z,9.80
2017-11-21T00:34:17.787Z,9.82
2017-11-21T00:36:45.672Z,9.75
2017-11-21T00:39:13.206Z,9.77
2017-11-21T00:41:41.102Z,9.79
2017-11-21T00:44:09.062Z,9.82
2017-11-21T00:46:36.649Z,9.80
2017-11-21T00:49:04.202Z,9.82
2017-11-21T00:51:31.778Z,9.83
2017-11-21T00:53:59.303Z,9.81
2017-11-21T00:56:27.041Z,9.84
2017-11-21T00:58:54.580Z,9.83
2017-11-21T01:01:22.147Z,9.84
2017-11-21T01:03:49.677Z,10.01
2017-11-21T01:06:17.247Z,9.94
2017-11-21T01:08:44.771Z,9.90
2017-11-21T01:11:12.298Z,9.91
2017-11-21T01:13:39.980Z,9.87
2017-11-21T01:16:07.538Z,9.87
2017-11-21T01:18:35.066Z,9.82
2017-11-21T01:21:02.645Z,9.84
2017-11-21T01:23:30.161Z,9.87
2017-11-21T01:25:57.690Z,9.88
2017-11-21T01:28:25.256Z,9.82
2017-11-21T01:30:52.774Z,9.83
2017-11-21T01:33:20.302Z,9.90
2017-11-21T01:35:47.863Z,9.83
2017-11-21T01:38:15.395Z,9.84
2017-11-21T01:40:42.909Z,9.83
2017-11-21T01:43:10.463Z,9.82
2017-11-21T01:45:37.985Z,9.77
2017-11-21T01:48:05.534Z,9.80
2017-11-21T01:50:33.048Z,9.76
2017-11-21T01:53:00.606Z,9.78
2017-11-21T01:55:28.135Z,9.80
2017-11-21T01:57:55.716Z,9.77
2017-11-21T02:00:23.310Z,9.77
2017-11-21T02:03:02.614Z,9.76
2017-11-21T02:05:30.142Z,9.76
2017-11-21T02:07:57.678Z,9.76
2017-11-21T02:10:25.226Z,9.80
2017-11-21T02:12:52.754Z,9.80
2017-11-21T02:15:20.306Z,9.94
2017-11-21T02:17:47.825Z,9.93
2017-11-21T02:20:15.396Z,9.79
2017-11-21T02:22:42.942Z,9.81
2017-11-21T02:25:10.532Z,9.79
2017-11-21T02:27:38.069Z,9.84
2017-11-21T02:30:05.598Z,9.85
2017-11-21T02:32:33.165Z,9.83
2017-11-21T02:35:00.719Z,9.89
2017-11-21T02:37:28.314Z,9.91
2017-11-21T02:39:55.855Z,9.87
2017-11-21T02:42:23.406Z,9.91
2017-11-21T02:44:50.979Z,9.91
2017-11-21T02:47:18.588Z,10.03
2017-11-21T02:49:46.133Z,9.95
2017-11-21T02:52:13.703Z,10.02
2017-11-21T02:54:41.289Z,10.01
2017-11-21T02:57:08.824Z,10.10
2017-11-21T02:59:36.390Z,10.05
2017-11-21T03:02:03.922Z,10.01
2017-11-21T03:04:31.625Z,10.00
2017-11-21T03:06:59.149Z,9.99
2017-11-21T03:09:26.674Z,10.05
2017-11-21T03:11:54.252Z,10.03
2017-11-21T03:14:21.843Z,10.07
2017-11-21T03:16:49.377Z,10.04
2017-11-21T03:19:16.910Z,10.04
2017-11-21T03:21:56.203Z,10.02
2017-11-21T03:24:35.703Z,10.06
2017-11-21T03:27:11.254Z,10.04
2017-11-21T03:29:38.981Z,10.06
2017-11-21T03:32:06.528Z,10.07
2017-11-21T03:34:34.082Z,10.04
2017-11-21T03:37:01.818Z,10.07
2017-11-21T03:39:29.346Z,10.13
2017-11-21T03:41:56.874Z,10.17
2017-11-21T03:44:24.479Z,10.15
2017-11-21T03:46:52.011Z,10.10
2017-11-21T03:49:19.541Z,10.13
2017-11-21T03:51:47.110Z,10.10
2017-11-21T03:54:14.713Z,10.11
2017-11-21T03:56:42.238Z,10.12
2017-11-21T03:59:09.774Z,10.19
2017-11-21T04:01:37.327Z,10.24
2017-11-21T04:04:04.934Z,10.10
2017-11-21T04:06:32.460Z,10.14
2017-11-21T04:08:59.981Z,10.12
2017-11-21T04:11:27.554Z,10.09
2017-11-21T04:13:55.092Z,10.05
2017-11-21T04:16:22.768Z,10.08
2017-11-21T04:18:50.292Z,10.06
2017-11-21T04:21:17.822Z,10.05
2017-11-21T04:23:45.422Z,10.12
2017-11-21T04:26:12.956Z,10.11
2017-11-21T04:28:40.490Z,10.07
2017-11-21T04:31:08.214Z,10.07
2017-11-21T04:33:35.770Z,10.04
2017-11-21T04:36:03.305Z,10.07
2017-11-21T04:38:30.947Z,10.11
2017-11-21T04:40:58.522Z,10.05
2017-11-21T04:43:26.046Z,10.00
2017-11-21T04:45:53.635Z,10.00
2017-11-21T04:48:21.168Z,10.01
2017-11-21T04:50:48.703Z,9.98
2017-11-21T04:53:16.292Z,10.13
2017-11-21T04:55:43.830Z,10.19
2017-11-21T04:58:11.398Z,10.10
2017-11-21T05:00:39.022Z,10.12
2017-11-21T05:03:06.562Z,9.98
2017-11-21T05:05:34.098Z,10.02
2017-11-21T05:08:01.701Z,10.17
2017-11-21T05:10:29.261Z,10.02
2017-11-21T05:12:56.790Z,9.99
2017-11-21T05:15:24.400Z,10.02
2017-11-21T05:17:51.928Z,10.14
2017-11-21T05:20:19.500Z,10.05
2017-11-21T05:22:47.366Z,10.17
2017-11-21T05:25:14.903Z,10.14
2017-11-21T05:27:42.444Z,10.03
2017-11-21T05:30:10.042Z,10.03
2017-11-21T05:32:49.340Z,10.02
2017-11-21T05:35:16.934Z,10.04
2017-11-21T05:37:44.462Z,10.09
2017-11-21T05:40:11.994Z,10.06
2017-11-21T05:42:39.728Z,10.03
2017-11-21T05:45:07.257Z,10.09
2017-11-21T05:47:34.799Z,10.19
2017-11-21T05:50:02.435Z,10.06
2017-11-21T05:52:29.975Z,10.13
2017-11-21T05:54:57.511Z,10.22
2017-11-21T05:57:25.092Z,10.24
2017-11-21T05:59:52.613Z,10.09
2017-11-21T06:02:20.149Z,10.21
2017-11-21T06:04:47.875Z,10.15
2017-11-21T06:07:15.396Z,10.32
2017-11-21T06:09:42.917Z,10.06
2017-11-21T06:12:10.465Z,10.11
2017-11-21T06:14:38.005Z,10.18
2017-11-21T06:17:05.563Z,10.15
2017-11-21T06:19:33.094Z,10.10
2017-11-21T06:22:00.831Z,10.14
2017-11-21T06:24:28.394Z,10.26
2017-11-21T06:26:55.931Z,10.42
2017-11-21T06:29:23.519Z,10.34
2017-11-21T06:31:51.045Z,10.22
2017-11-21T06:34:18.578Z,10.21
2017-11-21T06:36:46.313Z,10.33
2017-11-21T06:39:13.885Z,10.48
2017-11-21T06:41:41.415Z,10.27
2017-11-21T06:44:09.019Z,10.34
2017-11-21T06:46:36.551Z,10.36
2017-11-21T06:49:04.089Z,10.34
2017-11-21T06:51:31.871Z,10.42
2017-11-21T06:53:59.397Z,10.49
2017-11-21T06:56:26.922Z,10.52
2017-11-21T06:58:54.581Z,10.33
2017-11-21T07:01:22.110Z,10.22
2017-11-21T07:03:49.650Z,10.36
2017-11-21T07:06:17.406Z,10.32
2017-11-21T07:08:44.965Z,10.29
2017-11-21T07:11:12.483Z,10.28
2017-11-21T07:13:40.039Z,10.29
2017-11-21T07:16:07.589Z,10.38
2017-11-21T07:18:35.127Z,10.46
2017-11-21T07:21:02.714Z,10.35
2017-11-21T07:23:30.250Z,10.43
2017-11-21T07:25:57.778Z,10.37
2017-11-21T07:28:25.475Z,10.49
2017-11-21T07:30:53.890Z,10.56
2017-11-21T07:33:21.438Z,10.32
2017-11-21T07:35:49.018Z,10.48
2017-11-21T07:38:16.541Z,10.54
2017-11-21T07:40:44.070Z,10.55
2017-11-21T07:43:11.657Z,10.37
2017-11-21T07:45:39.189Z,10.45
2017-11-21T07:48:06.718Z,10.49
2017-11-21T07:50:34.270Z,10.50
2017-11-21T07:53:01.832Z,10.47
2017-11-21T07:55:29.417Z,10.45
2017-11-21T07:57:56.965Z,10.53
2017-11-21T08:00:24.509Z,10.52
2017-11-21T08:02:52.088Z,10.57
2017-11-21T08:05:19.670Z,10.48
2017-11-21T08:07:47.206Z,10.52
2017-11-21T08:10:14.920Z,10.48
2017-11-21T08:12:42.458Z,10.49
2017-11-21T08:15:10.011Z,10.57
2017-11-21T08:17:37.594Z,10.47
2017-11-21T08:20:05.258Z,10.51
2017-11-21T08:22:32.793Z,10.61
2017-11-21T08:25:00.338Z,10.53
2017-11-21T08:27:27.912Z,10.62
2017-11-21T08:29:55.438Z,10.62
2017-11-21T08:32:22.985Z,10.52
2017-11-21T08:34:50.844Z,10.58
2017-11-21T08:37:18.396Z,10.51
2017-11-21T08:39:45.930Z,10.51
2017-11-21T08:42:13.691Z,10.64
2017-11-21T08:44:41.226Z,10.80
2017-11-21T08:47:08.762Z,10.84
2017-11-21T08:49:36.502Z,10.80
2017-11-21T08:52:04.021Z,10.74
2017-11-21T08:54:31.559Z,10.73
2017-11-21T08:56:59.122Z,10.65
2017-11-21T08:59:26.654Z,10.89
2017-11-21T09:01:54.238Z,10.96
2017-11-21T09:04:21.761Z,10.81
2017-11-21T09:06:49.292Z,10.72
2017-11-21T09:09:16.978Z,10.73
2017-11-21T09:11:44.501Z,10.88
2017-11-21T09:14:12.054Z,10.86
2017-11-21T09:16:39.799Z,10.88
2017-11-21T09:19:07.344Z,10.86
2017-11-21T09:21:34.880Z,10.93
2017-11-21T09:24:02.617Z,11.01
2017-11-21T09:26:30.156Z,10.88
2017-11-21T09:28:57.682Z,11.14
2017-11-21T09:31:25.246Z,11.00
2017-11-21T09:33:52.805Z,11.02
2017-11-21T09:36:20.503Z,11.08
2017-11-21T09:38:48.038Z,11.04
2017-11-21T09:41:15.614Z,11.05
2017-11-21T09:43:43.201Z,11.02
2017-11-21T09:46:10.724Z,11.12
2017-11-21T09:48:38.262Z,11.06
2017-11-21T09:51:05.826Z,11.01
2017-11-21T09:53:33.349Z,11.11
2017-11-21T09:56:00.910Z,11.15
2017-11-21T09:58:28.454Z,11.08
2017-11-21T10:00:56.045Z,11.10
2017-11-21T10:03:23.573Z,11.24
2017-11-21T10:05:51.092Z,11.18
2017-11-21T10:08:18.649Z,11.12
2017-11-21T10:10:46.240Z,11.01
2017-11-21T10:13:13.790Z,11.18
2017-11-21T10:15:41.320Z,11.06
2017-11-21T10:18:09.017Z,11.21
2017-11-21T10:20:36.559Z,11.24
2017-11-21T10:23:04.090Z,11.12
2017-11-21T10:25:31.753Z,11.31
2017-11-21T10:27:59.303Z,11.27
2017-11-21T10:30:26.922Z,11.08
2017-11-21T10:32:54.661Z,11.16
2017-11-21T10:35:22.194Z,11.40
2017-11-21T10:37:49.730Z,11.20
2017-11-21T10:40:17.506Z,11.18
2017-11-21T10:42:45.053Z,11.20
2017-11-21T10:45:12.580Z,11.29
2017-11-21T10:47:40.125Z,11.29
2017-11-21T10:50:07.704Z,11.14
2017-11-21T10:52:35.245Z,11.39
2017-11-21T10:55:02.836Z,11.49
2017-11-21T10:57:30.387Z,11.58
2017-11-21T10:59:57.946Z,11.37
2017-11-21T11:02:25.518Z,11.19
2017-11-21T11:04:53.335Z,11.24
2017-11-21T11:07:20.884Z,11.21
2017-11-21T11:09:48.416Z,11.33
2017-11-21T11:12:16.009Z,11.43
2017-11-21T11:14:43.563Z,11.46
2017-11-21T11:17:11.119Z,11.52
2017-11-21T11:19:38.737Z,11.56
2017-11-21T11:22:06.281Z,11.66
2017-11-21T11:24:33.814Z,11.75
2017-11-21T11:27:01.438Z,11.63
2017-11-21T11:29:28.999Z,11.59
2017-11-21T11:31:56.550Z,11.47
2017-11-21T11:34:24.304Z,11.84
2017-11-21T11:36:51.841Z,11.84
2017-11-21T11:39:19.377Z,11.86
2017-11-21T11:41:46.992Z,12.05
2017-11-21T11:44:14.530Z,11.64
2017-11-21T11:46:42.100Z,11.66
2017-11-21T11:49:09.837Z,11.56
2017-11-21T11:51:37.353Z,11.75
2017-11-21T11:54:04.895Z,11.56
2017-11-21T11:56:32.458Z,11.62
2017-11-21T11:58:59.993Z,11.54
2017-11-21T12:01:27.651Z,11.58
2017-11-21T12:03:55.208Z,11.47
2017-11-21T12:06:22.804Z,11.47
2017-11-21T12:08:50.353Z,11.49
2017-11-21T12:11:18.097Z,11.63
2017-11-21T12:13:45.630Z,11.53
2017-11-21T12:16:13.185Z,11.53
2017-11-21T12:18:40.788Z,11.61
2017-11-21T12:21:08.342Z,11.80
2017-11-21T12:23:35.899Z,11.65
2017-11-21T12:26:03.501Z,11.68
2017-11-21T12:28:31.036Z,11.64
2017-11-21T12:30:58.576Z,11.71
2017-11-21T12:33:26.166Z,11.82
2017-11-21T12:35:53.706Z,11.69
2017-11-21T12:38:21.253Z,11.58
2017-11-21T12:40:48.866Z,11.64
2017-11-21T12:43:16.414Z,11.66
2017-11-21T12:45:44.025Z,11.55
2017-11-21T12:48:11.912Z,11.70
2017-11-21T12:50:39.464Z,11.86
2017-11-21T12:53:07.014Z,11.64
2017-11-21T12:55:34.565Z,11.79
2017-11-21T12:58:02.159Z,11.72
2017-11-21T13:00:29.702Z,11.56
2017-11-21T13:02:57.251Z,11.61
2017-11-21T13:05:24.849Z,11.49
2017-11-21T13:07:52.399Z,11.61
2017-11-21T13:10:19.980Z,11.67
2017-11-21T13:12:47.654Z,11.60
2017-11-21T13:15:15.253Z,11.59
2017-11-21T13:17:42.825Z,11.68
2017-11-21T13:20:10.566Z,11.61
2017-11-21T13:22:38.094Z,11.59
2017-11-21T13:25:05.668Z,11.56
2017-11-21T13:27:33.299Z,11.64
2017-11-21T13:30:00.851Z,11.80
2017-11-21T13:32:28.389Z,11.65
2017-11-21T13:34:56.023Z,11.65
2017-11-21T13:37:23.584Z,11.60
2017-11-21T13:39:51.138Z,11.65
2017-11-21T13:42:18.926Z,11.76
2017-11-21T13:44:46.562Z,11.70
2017-11-21T13:47:14.130Z,11.76
2017-11-21T13:49:41.837Z,11.77
2017-11-21T13:52:09.428Z,11.67
2017-11-21T13:54:36.961Z,11.75
2017-11-21T13:57:04.677Z,11.66
2017-11-21T13:59:32.209Z,11.71
2017-11-21T14:01:59.733Z,11.66
2017-11-21T14:04:27.333Z,11.56
2017-11-21T14:06:54.922Z,11.70
2017-11-21T14:09:22.566Z,11.70
2017-11-21T14:11:50.132Z,11.66
2017-11-21T14:14:17.745Z,11.57
2017-11-21T14:16:45.303Z,11.59
2017-11-21T14:19:12.856Z,11.56
2017-11-21T14:21:40.620Z,11.63
2017-11-21T14:24:08.176Z,11.60
2017-11-21T14:26:35.734Z,11.59
2017-11-21T14:29:03.430Z,11.49
2017-11-21T14:31:30.966Z,11.46
2017-11-21T14:33:58.525Z,11.52
2017-11-21T14:36:27.269Z,11.48
2017-11-21T14:38:54.822Z,11.51
2017-11-21T14:41:22.390Z,11.50
2017-11-21T14:43:49.959Z,11.38
2017-11-21T14:46:17.506Z,11.48
2017-11-21T14:48:45.237Z,11.40
2017-11-21T14:51:12.772Z,11.41
2017-11-21T14:53:40.325Z,11.35
2017-11-21T14:56:07.959Z,11.48
2017-11-21T14:58:35.514Z,11.41
2017-11-21T15:01:03.062Z,11.43
2017-11-21T15:03:30.630Z,11.34
2017-11-21T15:05:58.175Z,11.31
2017-11-21T15:08:25.928Z,11.31
2017-11-21T15:10:53.490Z,11.35
2017-11-21T15:13:21.053Z,11.35
2017-11-21T15:15:48.663Z,11.32
2017-11-21T15:18:16.216Z,11.30
2017-11-21T15:20:43.735Z,11.24
2017-11-21T15:23:11.471Z,11.22
2017-11-21T15:25:39.029Z,11.27
2017-11-21T15:28:06.586Z,11.24
2017-11-21T15:30:34.169Z,11.24
2017-11-21T15:33:01.698Z,11.23
2017-11-21T15:35:29.252Z,11.21
2017-11-21T15:37:56.827Z,11.31
2017-11-21T15:40:24.371Z,11.20
2017-11-21T15:42:51.934Z,11.24
2017-11-21T15:45:19.554Z,11.21
2017-11-21T15:47:47.110Z,11.22
2017-11-21T15:50:14.629Z,11.22
2017-11-21T15:52:42.291Z,11.19
2017-11-21T15:55:09.823Z,11.19
2017-11-21T15:57:37.364Z,11.25
2017-11-21T16:00:04.962Z,11.22
2017-11-21T16:02:32.495Z,11.23
2017-11-21T16:05:00.016Z,11.21
2017-11-21T16:07:27.569Z,11.19
2017-11-21T16:09:55.094Z,11.14
2017-11-21T16:12:22.705Z,11.23
2017-11-21T16:14:50.229Z,11.37
2017-11-21T16:17:17.767Z,11.21
2017-11-21T16:19:45.334Z,11.11
2017-11-21T16:22:12.874Z,11.24
2017-11-21T16:24:40.450Z,11.21
2017-11-21T16:27:08.172Z,11.16
2017-11-21T16:29:35.714Z,11.13
2017-11-21T16:32:03.245Z,11.08
2017-11-21T16:34:30.826Z,11.20
2017-11-21T16:36:58.434Z,11.11
2017-11-21T16:39:25.978Z,11.18
2017-11-21T16:41:53.497Z,11.26
2017-11-21T16:44:21.041Z,11.22
2017-11-21T16:46:48.634Z,11.14
2017-11-21T16:49:16.167Z,11.25
2017-11-21T16:51:43.697Z,11.14
2017-11-21T16:54:11.297Z,11.19
2017-11-21T16:56:38.814Z,11.25
2017-11-21T16:59:06.399Z,11.10
2017-11-21T17:01:34.003Z,11.19
2017-11-21T17:04:01.538Z,11.14
2017-11-21T17:06:29.068Z,11.20
2017-11-21T17:08:56.668Z,11.18
2017-11-21T17:11:24.222Z,11.17
2017-11-21T17:13:51.749Z,11.18
2017-11-21T17:16:19.415Z,11.22
2017-11-21T17:18:46.938Z,11.17
2017-11-21T17:21:14.462Z,11.24
2017-11-21T17:23:42.048Z,11.22
2017-11-21T17:26:09.579Z,11.32
2017-11-21T17:28:37.108Z,11.19
2017-11-21T17:31:04.681Z,11.23
2017-11-21T17:33:32.242Z,11.29
2017-11-21T17:35:59.784Z,11.37
2017-11-21T17:38:27.487Z,11.31
2017-11-21T17:40:55.018Z,11.32
2017-11-21T17:43:22.562Z,11.24
2017-11-21T17:45:50.230Z,11.27
2017-11-21T17:48:17.757Z,11.28
2017-11-21T17:50:45.277Z,11.40
2017-11-21T17:53:12.871Z,11.50
2017-11-21T17:55:40.417Z,11.40
2017-11-21T17:58:07.942Z,11.23
2017-11-21T18:00:35.632Z,11.30
2017-11-21T18:03:03.154Z,11.25
2017-11-21T18:05:30.761Z,11.26
2017-11-21T18:07:58.286Z,11.23
2017-11-21T18:10:25.834Z,11.31
2017-11-21T18:12:53.390Z,11.16
2017-11-21T18:15:20.975Z,11.17
2017-11-21T18:17:48.556Z,11.13
2017-11-21T18:20:16.102Z,11.13
2017-11-21T18:22:43.616Z,11.09
2017-11-21T18:25:11.373Z,11.20
2017-11-21T18:27:38.894Z,11.25
2017-11-21T18:30:06.417Z,11.24
2017-11-21T18:32:34.191Z,11.08
2017-11-21T18:35:01.717Z,11.16
2017-11-21T18:37:29.237Z,11.05
2017-11-21T18:39:56.794Z,11.25
2017-11-21T18:42:24.481Z,11.12
2017-11-21T18:44:52.001Z,11.10
2017-11-21T18:47:19.526Z,10.93
2017-11-21T18:49:47.249Z,10.92
2017-11-21T18:52:14.766Z,11.12
2017-11-21T18:54:42.289Z,11.23
2017-11-21T18:57:09.841Z,11.03
2017-11-21T18:59:37.366Z,10.96
2017-11-21T19:02:04.928Z,11.02
2017-11-21T19:04:32.469Z,11.03
2017-11-21T19:06:59.992Z,11.02
2017-11-21T19:09:27.546Z,10.95
2017-11-21T19:11:55.082Z,10.89
2017-11-21T19:14:22.630Z,10.77
2017-11-21T19:16:50.169Z,10.76
2017-11-21T19:19:17.878Z,10.88
2017-11-21T19:21:45.432Z,10.85
2017-11-21T19:24:12.978Z,10.71
2017-11-21T19:26:40.643Z,10.78
2017-11-21T19:29:08.174Z,10.88
2017-11-21T19:31:35.697Z,10.91
2017-11-21T19:34:03.263Z,10.89
2017-11-21T19:36:30.954Z,10.81
2017-11-21T19:38:58.478Z,10.81
2017-11-21T19:41:26.065Z,10.69
2017-11-21T19:43:53.627Z,10.90
2017-11-21T19:46:21.172Z,10.79
2017-11-21T19:48:48.780Z,10.77
2017-11-21T19:51:16.502Z,10.75
2017-11-21T19:53:44.032Z,10.80
2017-11-21T19:56:11.769Z,10.81
2017-11-21T19:58:39.307Z,10.77
2017-11-21T20:01:06.837Z,10.77
2017-11-21T20:03:34.407Z,10.73
2017-11-21T20:06:01.936Z,10.67
2017-11-21T20:08:29.639Z,10.63
2017-11-21T20:10:57.164Z,10.65
2017-11-21T20:13:24.690Z,10.50
2017-11-21T20:15:52.279Z,10.55
2017-11-21T20:18:19.805Z,10.44
2017-11-21T20:20:47.336Z,10.45
2017-11-21T20:23:15.081Z,10.50
2017-11-21T20:25:42.604Z,10.49
2017-11-21T20:28:10.145Z,10.40
2017-11-21T20:30:37.741Z,10.65
2017-11-21T20:33:05.270Z,10.57
2017-11-21T20:35:32.802Z,10.28
2017-11-21T20:38:00.403Z,10.47
2017-11-21T20:40:27.942Z,10.51
2017-11-21T20:42:55.483Z,10.30
2017-11-21T20:45:23.058Z,10.28
2017-11-21T20:47:50.806Z,10.17
2017-11-21T20:50:18.337Z,10.38
2017-11-21T20:52:45.954Z,10.28
2017-11-21T20:55:13.744Z,10.39
2017-11-21T20:57:41.279Z,10.35
2017-11-21T21:00:08.846Z,10.40
2017-11-21T21:02:36.404Z,10.53
2017-11-21T21:05:04.030Z,10.48
2017-11-21T21:07:31.553Z,10.39
2017-11-21T21:09:59.094Z,10.23
2017-11-21T21:12:26.654Z,10.27
2017-11-21T21:14:54.182Z,10.49
2017-11-21T21:17:21.766Z,10.33
2017-11-21T21:19:49.297Z,10.17
2017-11-21T21:22:16.822Z,10.03
2017-11-21T21:24:44.378Z,10.27
2017-11-21T21:27:23.854Z,10.16
2017-11-21T21:29:51.401Z,10.29
2017-11-21T21:32:18.930Z,10.11
2017-11-21T21:34:46.489Z,10.10
2017-11-21T21:37:14.023Z,10.13
2017-11-21T21:39:41.682Z,10.00
2017-11-21T21:42:09.210Z,10.19
2017-11-21T21:44:36.733Z,10.09
2017-11-21T21:47:04.462Z,10.09
2017-11-21T21:49:32.004Z,10.02
2017-11-21T21:51:59.551Z,10.08
2017-11-21T21:54:27.110Z,9.96
2017-11-21T21:56:54.689Z,9.90
2017-11-21T21:59:22.221Z,9.84
2017-11-21T22:01:49.755Z,9.96
2017-11-21T22:04:17.359Z,9.86
2017-11-21T22:06:44.919Z,9.95
2017-11-21T22:09:12.429Z,9.90
2017-11-21T22:11:40.175Z,9.86
2017-11-21T22:14:07.718Z,9.98
2017-11-21T22:16:35.247Z,9.96
2017-11-21T22:19:02.988Z,9.99
2017-11-21T22:21:30.527Z,10.00
2017-11-21T22:23:58.055Z,9.93
2017-11-21T22:26:25.636Z,9.97
2017-11-21T22:28:53.146Z,9.93
2017-11-21T22:31:20.678Z,9.71
2017-11-21T22:33:48.254Z,9.67
2017-11-21T22:36:15.777Z,9.71
2017-11-21T22:38:43.289Z,9.74
2017-11-21T22:41:10.947Z,9.91
2017-11-21T22:43:38.472Z,9.95
2017-11-21T22:46:05.997Z,10.02
2017-11-21T22:48:33.661Z,9.81
2017-11-21T22:51:01.203Z,9.67
2017-11-21T22:53:28.742Z,9.52
2017-11-21T22:55:56.491Z,9.65
2017-11-21T22:58:24.012Z,9.60
2017-11-21T23:00:51.542Z,9.70
2017-11-21T23:03:19.090Z,9.63
2017-11-21T23:05:46.795Z,9.80
2017-11-21T23:08:14.335Z,9.51
2017-11-21T23:10:41.874Z,9.82
2017-11-21T23:13:09.433Z,9.74
2017-11-21T23:15:36.999Z,9.52
2017-11-21T23:18:04.521Z,9.59
2017-11-21T23:20:32.219Z,9.68
2017-11-21T23:22:59.783Z,9.53
2017-11-21T23:25:27.310Z,9.42
2017-11-21T23:27:54.902Z,9.51
2017-11-21T23:30:22.446Z,9.46
2017-11-21T23:32:49.967Z,9.52
2017-11-21T23:35:17.552Z,9.45
2017-11-21T23:37:45.098Z,9.40
2017-11-21T23:40:12.629Z,9.46
2017-11-21T23:42:40.214Z,9.36
2017-11-21T23:45:07.787Z,9.40
2017-11-21T23:47:35.333Z,9.50
2017-11-21T23:50:02.881Z,9.60
2017-11-21T23:52:30.397Z,9.58
2017-11-21T23:54:57.950Z,9.49
2017-11-21T23:57:25.485Z,9.72
2017-11-21T23:59:53.067Z,9.60
